Terminal Aerodrome Forecast
Issued by NWS

Home | Current Version | Previous Version | Text Only | Print | Product List | Glossary On
Versions: 1 2 3 4 5 6 7 8 9 10 11 12 13 14 15 16 17 18 19 20 21 22 23 24 25 26 27 28 29 30 31 32 33 34 35 36
000
FTUS45 KPSR 040041 AAC
TAFPHX
TAF AMD
KPHX 040041Z 0401/0424 17016G26KT P6SM VCSH BKN100 BKN150 BKN200
     FM040200 17012G18KT P6SM VCSH BKN100 BKN150 BKN200
     FM040400 12008KT P6SM SCT100 BKN250
     FM042200 17010KT P6SM VCTS SCT100CB BKN200=

USA.gov is the U.S. government's official web portal to all federal, state and local government web resources and services.